Airfield :
LOGIN :

Register | Disclaimer

   EN    FR    IT 

 










Legend :    VFR   Marginal VFR   IFR   Intensive IFR   Very Intensive IFR
Visi :
Ceiling :
>= 8 km
>= 3000ft
5 to 8 km
1000 to 3000 ft
1500m to 5 km
500 to 1000 ft
800 to 1500m
200 to 500 ft
< 800m
< 200 ft
Symbols :   Thunderstorms  Fog  Heavy snow  Heavy precipitations  Wind > 20 kt
SIGMETs :     Misc.  Thunderstorms  Icing  Turbulence  Mountain Waves  Volcanic Ashes






- Airport Elevation : 404 ft
- IATA code : ECN


LCEN - Ercan International

CURRENT METAR :
  • 010750Z 00000KT 9999 FEW025 SCT100 15/12 Q1014 NOSIG RMK RWY11 00000KT

EXPIRED METARs :
  • 010720Z 28004KT 250V320 9999 FEW025CB SCT030 14/11 Q1014 NOSIG RMK RWY11 00000KT
  • 010650Z 00000KT 9999 FEW025CB SCT030 13/11 Q1015 NOSIG RMK RWY11 00000KT
  • 010620Z 27004KT 9999 FEW020CB SCT025 12/10 Q1014 NOSIG RMK RWY11 26004KT
  • 010550Z 22004KT 9999 FEW020CB SCT025 11/09 Q1014 NOSIG
  • 010520Z 25005KT 9999 FEW020CB SCT025 11/09 Q1014 NOSIG RMK RWY11 26006KT

TAF TAF LCEN
Valid from the 01 at 06:00 until the 02 at 06:00 UTC


010440Z 0106/0206 08015KT 9999 SCT025 SCT100
PROB30
TEMPO 0106/0110 5000 SHRA FEW020CB BKN025 BKN080



MET'MAP, your aeronautical weather chart ! - Copyright ORBIFLY December 2007 - Disclaimer

ORBIFLY MET'MAP TEAM :

Programming & Development : Alexandra Zaïnal
Concept & original design : Baudouin d'Aumeries
Assistance for programming : Marc-Olivier Méhu
Technical & hardware support : Manuel Goepfert

Contact : metmap@orbifly.com




SOURCES & CREDITS :

   NOAA